Aviation Digital Data Service (ADDS)

Output produced by TAFs form (1435 UTC 24 July 2017)
found at http://www.aviationweather.gov/adds/tafs/
 
METAR text: RJAW 241200Z 20010KT 9999 FEW015 SCT100 BKN230 27/25 Q1006 RMK 2CU015 3AC100 A2972
Conditions at: RJAW (IWOJIMA (JMSDF) , JP) observed 1200 UTC 24 July 2017
Temperature: 27.0°C (81°F)
Dewpoint: 25.0°C (77°F) [RH = 89%]
Pressure (altimeter): 29.70 inches Hg (1006.0 mb)
Winds: from the SSW (200 degrees) at 12 MPH (10 knots; 5.2 m/s)
Visibility: 6 or more miles (10+ km)
Ceiling: 23000 feet AGL
Clouds: few clouds at 1500 feet AGL
scattered clouds at 10000 feet AGL
broken clouds at 23000 feet AGL
Weather: no significant weather observed at this time